sensor_id;sensor_type;location;lat;lon;timestamp;P1;durP1;ratioP1;P2;durP2;ratioP2
4909;SDS011;2470;49.868;8.660;2024-03-02T00:00:19;7.30;;;4.50;;
4909;SDS011;2470;49.868;8.660;2024-03-02T00:02:47;7.17;;;4.40;;
4909;SDS011;2470;49.868;8.660;2024-03-02T00:05:17;9.20;;;4.03;;
4909;SDS011;2470;49.868;8.660;2024-03-02T00:07:45;11.17;;;4.60;;
4909;SDS011;2470;49.868;8.660;2024-03-02T00:10:19;8.13;;;4.70;;
4909;SDS011;2470;49.868;8.660;2024-03-02T00:12:48;6.70;;;4.13;;
4909;SDS011;2470;49.868;8.660;2024-03-02T00:17:52;8.33;;;4.53;;
4909;SDS011;2470;49.868;8.660;2024-03-02T00:20:18;7.00;;;4.37;;
4909;SDS011;2470;49.868;8.660;2024-03-02T00:22:47;9.23;;;4.63;;
4909;SDS011;2470;49.868;8.660;2024-03-02T00:25:13;10.40;;;4.20;;
4909;SDS011;2470;49.868;8.660;2024-03-02T00:27:39;9.50;;;4.40;;
4909;SDS011;2470;49.868;8.660;2024-03-02T00:30:06;8.17;;;4.23;;
4909;SDS011;2470;49.868;8.660;2024-03-02T00:33:01;7.07;;;4.33;;
4909;SDS011;2470;49.868;8.660;2024-03-02T00:35:26;7.50;;;4.13;;
4909;SDS011;2470;49.868;8.660;2024-03-02T00:37:54;8.40;;;4.13;;
4909;SDS011;2470;49.868;8.660;2024-03-02T00:40:27;6.03;;;4.80;;
4909;SDS011;2470;49.868;8.660;2024-03-02T00:42:55;7.27;;;4.73;;
4909;SDS011;2470;49.868;8.660;2024-03-02T00:45:21;6.00;;;3.63;;
4909;SDS011;2470;49.868;8.660;2024-03-02T00:47:46;6.83;;;3.90;;
4909;SDS011;2470;49.868;8.660;2024-03-02T00:50:12;5.97;;;3.67;;
4909;SDS011;2470;49.868;8.660;2024-03-02T00:52:39;7.73;;;3.63;;
4909;SDS011;2470;49.868;8.660;2024-03-02T00:55:06;7.80;;;4.20;;
4909;SDS011;2470;49.868;8.660;2024-03-02T00:57:32;5.60;;;4.17;;
4909;SDS011;2470;49.868;8.660;2024-03-02T00:59:59;7.90;;;4.27;;
4909;SDS011;2470;49.868;8.660;2024-03-02T01:02:25;13.30;;;4.73;;
4909;SDS011;2470;49.868;8.660;2024-03-02T01:04:50;6.83;;;3.67;;
4909;SDS011;2470;49.868;8.660;2024-03-02T01:07:16;9.80;;;5.10;;
4909;SDS011;2470;49.868;8.660;2024-03-02T01:09:41;7.30;;;4.70;;
4909;SDS011;2470;49.868;8.660;2024-03-02T01:12:07;6.90;;;4.00;;
4909;SDS011;2470;49.868;8.660;2024-03-02T01:14:32;5.57;;;3.90;;
4909;SDS011;2470;49.868;8.660;2024-03-02T01:16:58;8.30;;;4.37;;
4909;SDS011;2470;49.868;8.660;2024-03-02T01:19:23;5.17;;;3.73;;
4909;SDS011;2470;49.868;8.660;2024-03-02T01:21:49;7.67;;;4.80;;
4909;SDS011;2470;49.868;8.660;2024-03-02T01:24:15;6.77;;;4.13;;
4909;SDS011;2470;49.868;8.660;2024-03-02T01:26:41;8.53;;;4.57;;
4909;SDS011;2470;49.868;8.660;2024-03-02T01:29:07;10.23;;;4.57;;
4909;SDS011;2470;49.868;8.660;2024-03-02T01:31:33;8.67;;;3.90;;
4909;SDS011;2470;49.868;8.660;2024-03-02T01:33:58;10.03;;;5.00;;
4909;SDS011;2470;49.868;8.660;2024-03-02T01:36:23;8.00;;;4.40;;
4909;SDS011;2470;49.868;8.660;2024-03-02T01:38:49;8.47;;;4.77;;
4909;SDS011;2470;49.868;8.660;2024-03-02T01:41:15;8.93;;;4.20;;
4909;SDS011;2470;49.868;8.660;2024-03-02T01:43:40;11.70;;;5.20;;
4909;SDS011;2470;49.868;8.660;2024-03-02T01:46:06;7.17;;;4.37;;
4909;SDS011;2470;49.868;8.660;2024-03-02T01:48:31;7.77;;;4.83;;
4909;SDS011;2470;49.868;8.660;2024-03-02T01:50:57;10.33;;;4.50;;
4909;SDS011;2470;49.868;8.660;2024-03-02T01:53:22;8.63;;;4.17;;
4909;SDS011;2470;49.868;8.660;2024-03-02T01:55:48;10.83;;;4.70;;
4909;SDS011;2470;49.868;8.660;2024-03-02T01:58:14;10.90;;;5.20;;
4909;SDS011;2470;49.868;8.660;2024-03-02T02:00:40;9.53;;;5.27;;
4909;SDS011;2470;49.868;8.660;2024-03-02T02:03:05;10.60;;;5.00;;
4909;SDS011;2470;49.868;8.660;2024-03-02T02:05:31;9.27;;;5.07;;
4909;SDS011;2470;49.868;8.660;2024-03-02T02:07:57;8.00;;;4.60;;
4909;SDS011;2470;49.868;8.660;2024-03-02T02:10:23;7.77;;;5.13;;
4909;SDS011;2470;49.868;8.660;2024-03-02T02:12:49;7.80;;;5.57;;
4909;SDS011;2470;49.868;8.660;2024-03-02T02:15:24;8.10;;;4.90;;
4909;SDS011;2470;49.868;8.660;2024-03-02T02:17:51;16.07;;;6.27;;
4909;SDS011;2470;49.868;8.660;2024-03-02T02:20:16;9.33;;;4.90;;
4909;SDS011;2470;49.868;8.660;2024-03-02T02:23:01;8.47;;;3.87;;
4909;SDS011;2470;49.868;8.660;2024-03-02T02:25:28;5.87;;;4.00;;
4909;SDS011;2470;49.868;8.660;2024-03-02T02:27:54;11.60;;;5.70;;
4909;SDS011;2470;49.868;8.660;2024-03-02T02:30:24;10.03;;;5.20;;
4909;SDS011;2470;49.868;8.660;2024-03-02T02:32:54;8.77;;;4.20;;
4909;SDS011;2470;49.868;8.660;2024-03-02T02:35:20;6.70;;;4.10;;
4909;SDS011;2470;49.868;8.660;2024-03-02T02:37:47;8.20;;;4.07;;
4909;SDS011;2470;49.868;8.660;2024-03-02T02:40:13;5.43;;;3.30;;
4909;SDS011;2470;49.868;8.660;2024-03-02T02:42:39;6.17;;;3.63;;
4909;SDS011;2470;49.868;8.660;2024-03-02T02:45:05;6.20;;;3.63;;
4909;SDS011;2470;49.868;8.660;2024-03-02T02:47:31;7.60;;;4.00;;
4909;SDS011;2470;49.868;8.660;2024-03-02T02:50:00;7.20;;;4.70;;
4909;SDS011;2470;49.868;8.660;2024-03-02T02:52:30;10.50;;;4.23;;
4909;SDS011;2470;49.868;8.660;2024-03-02T02:54:58;8.60;;;4.27;;
4909;SDS011;2470;49.868;8.660;2024-03-02T02:57:23;6.40;;;3.53;;
4909;SDS011;2470;49.868;8.660;2024-03-02T02:59:49;5.60;;;3.40;;
4909;SDS011;2470;49.868;8.660;2024-03-02T03:02:14;4.53;;;3.20;;
4909;SDS011;2470;49.868;8.660;2024-03-02T03:04:40;4.27;;;3.50;;
4909;SDS011;2470;49.868;8.660;2024-03-02T03:07:05;5.90;;;3.40;;
4909;SDS011;2470;49.868;8.660;2024-03-02T03:09:31;4.37;;;3.17;;
4909;SDS011;2470;49.868;8.660;2024-03-02T03:11:57;9.00;;;3.00;;
4909;SDS011;2470;49.868;8.660;2024-03-02T03:14:22;4.40;;;3.57;;
4909;SDS011;2470;49.868;8.660;2024-03-02T03:16:48;5.27;;;2.87;;
4909;SDS011;2470;49.868;8.660;2024-03-02T03:19:13;4.10;;;2.70;;
4909;SDS011;2470;49.868;8.660;2024-03-02T03:21:39;7.73;;;3.00;;
4909;SDS011;2470;49.868;8.660;2024-03-02T03:24:04;6.17;;;2.50;;
4909;SDS011;2470;49.868;8.660;2024-03-02T03:26:30;3.00;;;2.10;;
4909;SDS011;2470;49.868;8.660;2024-03-02T03:28:55;3.20;;;2.00;;
4909;SDS011;2470;49.868;8.660;2024-03-02T03:31:21;6.87;;;2.90;;
4909;SDS011;2470;49.868;8.660;2024-03-02T03:33:46;3.73;;;2.23;;
4909;SDS011;2470;49.868;8.660;2024-03-02T03:36:12;4.50;;;1.83;;
4909;SDS011;2470;49.868;8.660;2024-03-02T03:38:37;4.77;;;2.30;;
4909;SDS011;2470;49.868;8.660;2024-03-02T03:41:03;2.53;;;1.90;;
4909;SDS011;2470;49.868;8.660;2024-03-02T03:43:28;2.03;;;1.50;;
4909;SDS011;2470;49.868;8.660;2024-03-02T03:45:54;2.20;;;1.70;;
4909;SDS011;2470;49.868;8.660;2024-03-02T03:48:19;6.77;;;1.90;;
4909;SDS011;2470;49.868;8.660;2024-03-02T03:50:45;2.97;;;1.97;;
4909;SDS011;2470;49.868;8.660;2024-03-02T03:53:11;1.53;;;1.43;;
4909;SDS011;2470;49.868;8.660;2024-03-02T03:55:36;1.87;;;1.60;;
4909;SDS011;2470;49.868;8.660;2024-03-02T03:58:02;2.00;;;1.40;;
4909;SDS011;2470;49.868;8.660;2024-03-02T04:00:27;4.33;;;1.90;;
4909;SDS011;2470;49.868;8.660;2024-03-02T04:02:53;4.80;;;1.93;;
4909;SDS011;2470;49.868;8.660;2024-03-02T04:05:18;4.40;;;1.97;;
4909;SDS011;2470;49.868;8.660;2024-03-02T04:07:44;3.07;;;2.50;;
4909;SDS011;2470;49.868;8.660;2024-03-02T04:10:10;3.00;;;2.27;;
4909;SDS011;2470;49.868;8.660;2024-03-02T04:12:37;6.10;;;3.10;;
4909;SDS011;2470;49.868;8.660;2024-03-02T04:15:04;5.60;;;3.13;;
4909;SDS011;2470;49.868;8.660;2024-03-02T04:17:31;5.53;;;2.80;;
4909;SDS011;2470;49.868;8.660;2024-03-02T04:19:58;8.20;;;4.67;;
4909;SDS011;2470;49.868;8.660;2024-03-02T04:22:23;7.30;;;3.57;;
4909;SDS011;2470;49.868;8.660;2024-03-02T04:24:49;7.10;;;4.23;;
4909;SDS011;2470;49.868;8.660;2024-03-02T04:27:14;9.07;;;3.90;;
4909;SDS011;2470;49.868;8.660;2024-03-02T04:29:40;7.70;;;4.40;;
4909;SDS011;2470;49.868;8.660;2024-03-02T04:32:05;7.70;;;4.67;;
4909;SDS011;2470;49.868;8.660;2024-03-02T04:34:31;18.70;;;5.13;;
4909;SDS011;2470;49.868;8.660;2024-03-02T04:36:57;8.10;;;4.70;;
4909;SDS011;2470;49.868;8.660;2024-03-02T04:39:22;10.27;;;5.00;;
4909;SDS011;2470;49.868;8.660;2024-03-02T04:41:48;11.87;;;5.70;;
4909;SDS011;2470;49.868;8.660;2024-03-02T04:44:13;7.60;;;5.17;;
4909;SDS011;2470;49.868;8.660;2024-03-02T04:46:39;11.57;;;5.10;;
4909;SDS011;2470;49.868;8.660;2024-03-02T04:49:04;7.87;;;4.70;;
4909;SDS011;2470;49.868;8.660;2024-03-02T04:51:30;7.57;;;4.50;;
4909;SDS011;2470;49.868;8.660;2024-03-02T04:53:55;10.43;;;5.00;;
4909;SDS011;2470;49.868;8.660;2024-03-02T04:56:20;8.23;;;3.80;;
4909;SDS011;2470;49.868;8.660;2024-03-02T04:59:05;9.77;;;4.37;;
4909;SDS011;2470;49.868;8.660;2024-03-02T05:01:31;9.50;;;3.90;;
4909;SDS011;2470;49.868;8.660;2024-03-02T05:03:58;8.97;;;4.87;;
4909;SDS011;2470;49.868;8.660;2024-03-02T05:06:24;11.47;;;5.20;;
4909;SDS011;2470;49.868;8.660;2024-03-02T05:08:52;9.43;;;4.80;;
4909;SDS011;2470;49.868;8.660;2024-03-02T05:11:17;10.60;;;4.53;;
4909;SDS011;2470;49.868;8.660;2024-03-02T05:14:02;10.83;;;4.50;;
4909;SDS011;2470;49.868;8.660;2024-03-02T05:16:28;11.53;;;5.80;;
4909;SDS011;2470;49.868;8.660;2024-03-02T05:18:53;14.03;;;5.80;;
4909;SDS011;2470;49.868;8.660;2024-03-02T05:21:19;9.27;;;5.90;;
4909;SDS011;2470;49.868;8.660;2024-03-02T05:23:45;15.67;;;6.60;;
4909;SDS011;2470;49.868;8.660;2024-03-02T05:26:10;12.70;;;6.00;;
4909;SDS011;2470;49.868;8.660;2024-03-02T05:28:39;16.43;;;6.60;;
4909;SDS011;2470;49.868;8.660;2024-03-02T05:31:04;17.67;;;7.40;;
4909;SDS011;2470;49.868;8.660;2024-03-02T05:33:30;19.47;;;7.43;;
4909;SDS011;2470;49.868;8.660;2024-03-02T05:35:57;14.93;;;6.20;;
4909;SDS011;2470;49.868;8.660;2024-03-02T05:38:23;15.50;;;7.83;;
4909;SDS011;2470;49.868;8.660;2024-03-02T05:40:49;13.37;;;7.03;;
4909;SDS011;2470;49.868;8.660;2024-03-02T05:43:14;12.00;;;6.70;;
4909;SDS011;2470;49.868;8.660;2024-03-02T05:45:40;16.03;;;9.33;;
4909;SDS011;2470;49.868;8.660;2024-03-02T05:48:06;18.07;;;7.43;;
4909;SDS011;2470;49.868;8.660;2024-03-02T05:50:35;15.03;;;6.37;;
4909;SDS011;2470;49.868;8.660;2024-03-02T05:53:00;13.73;;;6.30;;
4909;SDS011;2470;49.868;8.660;2024-03-02T05:55:26;15.13;;;6.20;;
4909;SDS011;2470;49.868;8.660;2024-03-02T05:57:51;11.70;;;6.77;;
4909;SDS011;2470;49.868;8.660;2024-03-02T06:00:37;10.80;;;5.63;;
4909;SDS011;2470;49.868;8.660;2024-03-02T06:03:03;11.07;;;5.73;;
4909;SDS011;2470;49.868;8.660;2024-03-02T06:05:29;20.93;;;8.13;;
4909;SDS011;2470;49.868;8.660;2024-03-02T06:07:54;12.80;;;6.17;;
4909;SDS011;2470;49.868;8.660;2024-03-02T06:10:20;17.97;;;6.40;;
4909;SDS011;2470;49.868;8.660;2024-03-02T06:12:45;19.20;;;6.37;;
4909;SDS011;2470;49.868;8.660;2024-03-02T06:15:11;21.83;;;6.47;;
4909;SDS011;2470;49.868;8.660;2024-03-02T06:17:36;11.60;;;6.40;;
4909;SDS011;2470;49.868;8.660;2024-03-02T06:20:02;13.27;;;5.60;;
4909;SDS011;2470;49.868;8.660;2024-03-02T06:22:28;10.87;;;5.40;;
4909;SDS011;2470;49.868;8.660;2024-03-02T06:24:54;10.00;;;5.80;;
4909;SDS011;2470;49.868;8.660;2024-03-02T06:27:19;9.93;;;5.37;;
4909;SDS011;2470;49.868;8.660;2024-03-02T06:29:45;14.20;;;5.03;;
4909;SDS011;2470;49.868;8.660;2024-03-02T06:32:10;13.50;;;5.40;;
4909;SDS011;2470;49.868;8.660;2024-03-02T06:34:36;8.47;;;4.73;;
4909;SDS011;2470;49.868;8.660;2024-03-02T06:37:01;9.33;;;4.57;;
4909;SDS011;2470;49.868;8.660;2024-03-02T06:39:27;11.80;;;5.13;;
4909;SDS011;2470;49.868;8.660;2024-03-02T06:41:52;7.63;;;4.50;;
4909;SDS011;2470;49.868;8.660;2024-03-02T06:44:18;11.70;;;4.17;;
4909;SDS011;2470;49.868;8.660;2024-03-02T06:46:43;14.20;;;6.50;;
4909;SDS011;2470;49.868;8.660;2024-03-02T06:49:09;7.50;;;4.30;;
4909;SDS011;2470;49.868;8.660;2024-03-02T06:51:35;9.03;;;5.20;;
4909;SDS011;2470;49.868;8.660;2024-03-02T06:54:01;12.47;;;6.70;;
4909;SDS011;2470;49.868;8.660;2024-03-02T06:56:26;9.30;;;5.63;;
4909;SDS011;2470;49.868;8.660;2024-03-02T06:58:52;10.50;;;5.73;;
4909;SDS011;2470;49.868;8.660;2024-03-02T07:01:17;9.33;;;5.77;;
4909;SDS011;2470;49.868;8.660;2024-03-02T07:03:45;14.60;;;7.00;;
4909;SDS011;2470;49.868;8.660;2024-03-02T07:06:10;10.97;;;6.43;;
4909;SDS011;2470;49.868;8.660;2024-03-02T07:08:36;10.97;;;5.00;;
4909;SDS011;2470;49.868;8.660;2024-03-02T07:11:01;14.93;;;7.10;;
4909;SDS011;2470;49.868;8.660;2024-03-02T07:13:27;13.53;;;6.33;;
4909;SDS011;2470;49.868;8.660;2024-03-02T07:15:52;13.17;;;7.60;;
4909;SDS011;2470;49.868;8.660;2024-03-02T07:18:36;10.30;;;6.87;;
4909;SDS011;2470;49.868;8.660;2024-03-02T07:21:06;22.93;;;10.20;;
4909;SDS011;2470;49.868;8.660;2024-03-02T07:23:32;16.20;;;10.10;;
4909;SDS011;2470;49.868;8.660;2024-03-02T07:25:59;20.87;;;9.20;;
4909;SDS011;2470;49.868;8.660;2024-03-02T07:28:26;15.10;;;9.27;;
4909;SDS011;2470;49.868;8.660;2024-03-02T07:30:58;11.10;;;6.63;;
4909;SDS011;2470;49.868;8.660;2024-03-02T07:33:24;12.00;;;6.93;;
4909;SDS011;2470;49.868;8.660;2024-03-02T07:35:50;28.20;;;11.83;;
4909;SDS011;2470;49.868;8.660;2024-03-02T07:38:15;29.47;;;12.20;;
4909;SDS011;2470;49.868;8.660;2024-03-02T07:40:42;21.87;;;9.27;;
4909;SDS011;2470;49.868;8.660;2024-03-02T07:43:07;19.57;;;9.60;;
4909;SDS011;2470;49.868;8.660;2024-03-02T07:45:33;16.97;;;9.00;;
4909;SDS011;2470;49.868;8.660;2024-03-02T07:48:00;31.30;;;13.53;;
4909;SDS011;2470;49.868;8.660;2024-03-02T07:50:28;28.00;;;12.50;;
4909;SDS011;2470;49.868;8.660;2024-03-02T07:52:53;22.50;;;11.20;;
4909;SDS011;2470;49.868;8.660;2024-03-02T07:55:19;15.50;;;8.00;;
4909;SDS011;2470;49.868;8.660;2024-03-02T07:57:44;18.90;;;9.07;;
4909;SDS011;2470;49.868;8.660;2024-03-02T08:00:10;20.23;;;8.77;;
4909;SDS011;2470;49.868;8.660;2024-03-02T08:02:36;20.73;;;10.63;;
4909;SDS011;2470;49.868;8.660;2024-03-02T08:05:01;16.80;;;8.20;;
4909;SDS011;2470;49.868;8.660;2024-03-02T08:07:27;14.53;;;8.03;;
4909;SDS011;2470;49.868;8.660;2024-03-02T08:09:53;14.13;;;7.97;;
4909;SDS011;2470;49.868;8.660;2024-03-02T08:12:18;14.10;;;7.30;;
4909;SDS011;2470;49.868;8.660;2024-03-02T08:14:44;17.33;;;8.37;;
4909;SDS011;2470;49.868;8.660;2024-03-02T08:17:10;17.17;;;8.37;;
4909;SDS011;2470;49.868;8.660;2024-03-02T08:19:36;16.63;;;9.20;;
4909;SDS011;2470;49.868;8.660;2024-03-02T08:22:02;11.70;;;7.40;;
4909;SDS011;2470;49.868;8.660;2024-03-02T08:24:28;15.73;;;8.50;;
4909;SDS011;2470;49.868;8.660;2024-03-02T08:26:54;19.17;;;8.90;;
4909;SDS011;2470;49.868;8.660;2024-03-02T08:29:19;13.47;;;8.40;;
4909;SDS011;2470;49.868;8.660;2024-03-02T08:31:45;11.17;;;6.50;;
4909;SDS011;2470;49.868;8.660;2024-03-02T08:34:10;18.93;;;8.60;;
4909;SDS011;2470;49.868;8.660;2024-03-02T08:36:36;18.50;;;7.90;;
4909;SDS011;2470;49.868;8.660;2024-03-02T08:39:01;13.80;;;6.80;;
4909;SDS011;2470;49.868;8.660;2024-03-02T08:41:28;15.37;;;8.37;;
4909;SDS011;2470;49.868;8.660;2024-03-02T08:43:53;12.03;;;7.37;;
4909;SDS011;2470;49.868;8.660;2024-03-02T08:46:19;18.13;;;6.77;;
4909;SDS011;2470;49.868;8.660;2024-03-02T08:48:45;17.10;;;7.40;;
4909;SDS011;2470;49.868;8.660;2024-03-02T08:51:10;15.33;;;7.87;;
4909;SDS011;2470;49.868;8.660;2024-03-02T08:53:36;21.13;;;8.07;;
4909;SDS011;2470;49.868;8.660;2024-03-02T08:56:02;10.87;;;6.97;;
4909;SDS011;2470;49.868;8.660;2024-03-02T08:58:30;11.73;;;7.17;;
4909;SDS011;2470;49.868;8.660;2024-03-02T09:00:56;14.57;;;7.67;;
4909;SDS011;2470;49.868;8.660;2024-03-02T09:03:21;9.20;;;6.57;;
4909;SDS011;2470;49.868;8.660;2024-03-02T09:05:47;13.53;;;7.57;;
4909;SDS011;2470;49.868;8.660;2024-03-02T09:08:13;16.93;;;8.03;;
4909;SDS011;2470;49.868;8.660;2024-03-02T09:10:38;10.00;;;6.03;;
4909;SDS011;2470;49.868;8.660;2024-03-02T09:13:05;17.00;;;7.07;;
4909;SDS011;2470;49.868;8.660;2024-03-02T09:15:30;13.93;;;8.97;;
4909;SDS011;2470;49.868;8.660;2024-03-02T09:17:56;13.33;;;6.63;;
4909;SDS011;2470;49.868;8.660;2024-03-02T09:20:21;14.23;;;7.37;;
4909;SDS011;2470;49.868;8.660;2024-03-02T09:22:47;13.33;;;7.70;;
4909;SDS011;2470;49.868;8.660;2024-03-02T09:25:13;14.27;;;7.50;;
4909;SDS011;2470;49.868;8.660;2024-03-02T09:27:39;15.20;;;8.47;;
4909;SDS011;2470;49.868;8.660;2024-03-02T09:30:07;12.80;;;7.40;;
4909;SDS011;2470;49.868;8.660;2024-03-02T09:32:33;15.77;;;8.20;;
4909;SDS011;2470;49.868;8.660;2024-03-02T09:34:59;13.27;;;8.00;;
4909;SDS011;2470;49.868;8.660;2024-03-02T09:37:25;13.17;;;6.90;;
4909;SDS011;2470;49.868;8.660;2024-03-02T09:39:51;13.70;;;7.03;;
4909;SDS011;2470;49.868;8.660;2024-03-02T09:42:17;13.80;;;7.93;;
4909;SDS011;2470;49.868;8.660;2024-03-02T09:44:46;26.13;;;8.50;;
4909;SDS011;2470;49.868;8.660;2024-03-02T09:47:28;16.37;;;9.27;;
4909;SDS011;2470;49.868;8.660;2024-03-02T09:49:54;38.70;;;16.27;;
4909;SDS011;2470;49.868;8.660;2024-03-02T09:52:20;23.00;;;10.80;;
4909;SDS011;2470;49.868;8.660;2024-03-02T09:54:47;20.23;;;9.17;;
4909;SDS011;2470;49.868;8.660;2024-03-02T09:57:13;20.00;;;9.00;;
4909;SDS011;2470;49.868;8.660;2024-03-02T09:59:40;20.50;;;8.20;;
4909;SDS011;2470;49.868;8.660;2024-03-02T10:02:05;15.00;;;6.93;;
4909;SDS011;2470;49.868;8.660;2024-03-02T10:04:32;31.30;;;14.30;;
4909;SDS011;2470;49.868;8.660;2024-03-02T10:07:14;11.20;;;6.70;;
4909;SDS011;2470;49.868;8.660;2024-03-02T10:09:41;14.87;;;8.40;;
4909;SDS011;2470;49.868;8.660;2024-03-02T10:12:08;13.13;;;6.75;;
4909;SDS011;2470;49.868;8.660;2024-03-02T10:14:36;13.23;;;6.93;;
4909;SDS011;2470;49.868;8.660;2024-03-02T10:17:03;10.57;;;6.25;;
4909;SDS011;2470;49.868;8.660;2024-03-02T10:19:39;23.45;;;10.23;;
4909;SDS011;2470;49.868;8.660;2024-03-02T10:22:05;14.80;;;6.78;;
4909;SDS011;2470;49.868;8.660;2024-03-02T10:24:38;5.75;;;4.82;;
4909;SDS011;2470;49.868;8.660;2024-03-02T10:27:08;7.07;;;4.55;;
4909;SDS011;2470;49.868;8.660;2024-03-02T10:29:53;8.88;;;5.43;;
4909;SDS011;2470;49.868;8.660;2024-03-02T10:32:18;12.77;;;5.97;;
4909;SDS011;2470;49.868;8.660;2024-03-02T10:34:47;8.35;;;5.68;;
4909;SDS011;2470;49.868;8.660;2024-03-02T10:37:15;8.80;;;4.82;;
4909;SDS011;2470;49.868;8.660;2024-03-02T10:39:42;7.80;;;4.10;;
4909;SDS011;2470;49.868;8.660;2024-03-02T10:42:08;5.95;;;3.65;;
4909;SDS011;2470;49.868;8.660;2024-03-02T10:44:34;5.18;;;3.67;;
4909;SDS011;2470;49.868;8.660;2024-03-02T10:47:00;6.70;;;4.03;;
4909;SDS011;2470;49.868;8.660;2024-03-02T10:49:29;12.25;;;5.57;;
4909;SDS011;2470;49.868;8.660;2024-03-02T10:51:55;6.65;;;4.13;;
4909;SDS011;2470;49.868;8.660;2024-03-02T10:54:21;4.55;;;3.50;;
4909;SDS011;2470;49.868;8.660;2024-03-02T10:56:51;7.28;;;4.05;;
4909;SDS011;2470;49.868;8.660;2024-03-02T10:59:32;13.65;;;4.60;;
4909;SDS011;2470;49.868;8.660;2024-03-02T11:02:21;6.00;;;3.60;;
4909;SDS011;2470;49.868;8.660;2024-03-02T11:05:33;8.85;;;4.05;;
4909;SDS011;2470;49.868;8.660;2024-03-02T11:08:08;6.60;;;4.07;;
4909;SDS011;2470;49.868;8.660;2024-03-02T11:10:38;8.05;;;3.50;;
4909;SDS011;2470;49.868;8.660;2024-03-02T11:13:09;8.40;;;4.70;;
4909;SDS011;2470;49.868;8.660;2024-03-02T11:15:37;5.18;;;3.60;;
4909;SDS011;2470;49.868;8.660;2024-03-02T11:18:05;10.98;;;6.03;;
4909;SDS011;2470;49.868;8.660;2024-03-02T11:20:34;9.73;;;4.50;;
4909;SDS011;2470;49.868;8.660;2024-03-02T11:23:07;10.00;;;5.50;;
4909;SDS011;2470;49.868;8.660;2024-03-02T11:25:33;6.18;;;4.10;;
4909;SDS011;2470;49.868;8.660;2024-03-02T11:27:59;7.50;;;3.88;;
4909;SDS011;2470;49.868;8.660;2024-03-02T11:33:02;7.85;;;4.53;;
4909;SDS011;2470;49.868;8.660;2024-03-02T11:35:35;8.82;;;4.15;;
4909;SDS011;2470;49.868;8.660;2024-03-02T11:38:02;6.88;;;3.58;;
4909;SDS011;2470;49.868;8.660;2024-03-02T11:40:28;10.60;;;5.10;;
4909;SDS011;2470;49.868;8.660;2024-03-02T11:42:54;5.38;;;2.80;;
4909;SDS011;2470;49.868;8.660;2024-03-02T11:45:23;4.68;;;3.47;;
4909;SDS011;2470;49.868;8.660;2024-03-02T11:47:50;6.10;;;3.42;;
4909;SDS011;2470;49.868;8.660;2024-03-02T11:50:15;5.43;;;3.28;;
4909;SDS011;2470;49.868;8.660;2024-03-02T11:52:53;5.20;;;3.05;;
4909;SDS011;2470;49.868;8.660;2024-03-02T11:55:20;8.43;;;3.42;;
4909;SDS011;2470;49.868;8.660;2024-03-02T11:57:46;9.25;;;3.72;;
4909;SDS011;2470;49.868;8.660;2024-03-02T12:00:19;6.47;;;3.28;;
4909;SDS011;2470;49.868;8.660;2024-03-02T12:02:45;5.68;;;2.67;;
4909;SDS011;2470;49.868;8.660;2024-03-02T12:05:14;3.90;;;2.53;;
4909;SDS011;2470;49.868;8.660;2024-03-02T12:07:41;4.80;;;2.50;;
4909;SDS011;2470;49.868;8.660;2024-03-02T12:10:08;4.90;;;2.42;;
4909;SDS011;2470;49.868;8.660;2024-03-02T12:12:34;3.35;;;2.42;;
4909;SDS011;2470;49.868;8.660;2024-03-02T12:14:59;5.82;;;2.58;;
4909;SDS011;2470;49.868;8.660;2024-03-02T12:17:25;2.92;;;2.28;;
4909;SDS011;2470;49.868;8.660;2024-03-02T12:19:51;3.05;;;2.03;;
4909;SDS011;2470;49.868;8.660;2024-03-02T12:22:17;4.95;;;2.70;;
4909;SDS011;2470;49.868;8.660;2024-03-02T12:24:43;2.65;;;1.98;;
4909;SDS011;2470;49.868;8.660;2024-03-02T12:27:13;5.25;;;2.20;;
4909;SDS011;2470;49.868;8.660;2024-03-02T12:29:40;3.05;;;2.38;;
4909;SDS011;2470;49.868;8.660;2024-03-02T12:32:06;3.20;;;2.25;;
4909;SDS011;2470;49.868;8.660;2024-03-02T12:34:32;4.82;;;2.40;;
4909;SDS011;2470;49.868;8.660;2024-03-02T12:36:57;3.58;;;2.50;;
4909;SDS011;2470;49.868;8.660;2024-03-02T12:39:23;2.75;;;2.17;;
4909;SDS011;2470;49.868;8.660;2024-03-02T12:41:49;4.18;;;2.92;;
4909;SDS011;2470;49.868;8.660;2024-03-02T12:44:15;4.55;;;2.58;;
4909;SDS011;2470;49.868;8.660;2024-03-02T12:46:42;2.80;;;1.95;;
4909;SDS011;2470;49.868;8.660;2024-03-02T12:49:08;3.72;;;1.70;;
4909;SDS011;2470;49.868;8.660;2024-03-02T12:51:38;2.70;;;2.50;;
4909;SDS011;2470;49.868;8.660;2024-03-02T12:54:08;2.47;;;2.15;;
4909;SDS011;2470;49.868;8.660;2024-03-02T12:56:35;3.33;;;2.22;;
4909;SDS011;2470;49.868;8.660;2024-03-02T12:59:02;2.33;;;2.13;;
4909;SDS011;2470;49.868;8.660;2024-03-02T13:01:28;2.67;;;2.45;;
4909;SDS011;2470;49.868;8.660;2024-03-02T13:03:54;2.15;;;1.77;;
4909;SDS011;2470;49.868;8.660;2024-03-02T13:06:20;2.67;;;1.98;;
4909;SDS011;2470;49.868;8.660;2024-03-02T13:08:46;1.80;;;1.70;;
4909;SDS011;2470;49.868;8.660;2024-03-02T13:11:12;2.15;;;1.95;;
4909;SDS011;2470;49.868;8.660;2024-03-02T13:13:38;2.42;;;1.83;;
4909;SDS011;2470;49.868;8.660;2024-03-02T13:16:12;2.67;;;2.10;;
4909;SDS011;2470;49.868;8.660;2024-03-02T13:18:41;1.65;;;1.55;;
4909;SDS011;2470;49.868;8.660;2024-03-02T13:21:07;3.28;;;2.00;;
4909;SDS011;2470;49.868;8.660;2024-03-02T13:23:33;4.38;;;1.77;;
4909;SDS011;2470;49.868;8.660;2024-03-02T13:25:59;1.45;;;1.35;;
4909;SDS011;2470;49.868;8.660;2024-03-02T13:28:25;1.80;;;1.48;;
4909;SDS011;2470;49.868;8.660;2024-03-02T13:30:50;2.38;;;2.17;;
4909;SDS011;2470;49.868;8.660;2024-03-02T13:33:16;2.28;;;1.75;;
4909;SDS011;2470;49.868;8.660;2024-03-02T13:35:47;5.28;;;2.10;;
4909;SDS011;2470;49.868;8.660;2024-03-02T13:38:19;2.78;;;1.58;;
4909;SDS011;2470;49.868;8.660;2024-03-02T13:40:45;1.92;;;1.80;;
4909;SDS011;2470;49.868;8.660;2024-03-02T13:43:13;1.90;;;1.48;;
4909;SDS011;2470;49.868;8.660;2024-03-02T13:45:39;2.03;;;1.67;;
4909;SDS011;2470;49.868;8.660;2024-03-02T13:48:05;2.20;;;1.60;;
4909;SDS011;2470;49.868;8.660;2024-03-02T13:50:30;2.70;;;1.92;;
4909;SDS011;2470;49.868;8.660;2024-03-02T13:52:57;2.78;;;2.35;;
4909;SDS011;2470;49.868;8.660;2024-03-02T13:55:22;2.97;;;2.15;;
4909;SDS011;2470;49.868;8.660;2024-03-02T13:57:48;2.88;;;1.83;;
4909;SDS011;2470;49.868;8.660;2024-03-02T14:00:15;2.10;;;1.80;;
4909;SDS011;2470;49.868;8.660;2024-03-02T14:02:42;2.72;;;2.30;;
4909;SDS011;2470;49.868;8.660;2024-03-02T14:05:08;2.75;;;2.10;;
4909;SDS011;2470;49.868;8.660;2024-03-02T14:07:36;2.17;;;1.95;;
4909;SDS011;2470;49.868;8.660;2024-03-02T14:10:03;3.50;;;2.38;;
4909;SDS011;2470;49.868;8.660;2024-03-02T14:12:28;2.67;;;1.90;;
4909;SDS011;2470;49.868;8.660;2024-03-02T14:14:54;3.05;;;2.55;;
4909;SDS011;2470;49.868;8.660;2024-03-02T14:17:23;2.40;;;1.85;;
4909;SDS011;2470;49.868;8.660;2024-03-02T14:19:51;3.05;;;2.03;;
4909;SDS011;2470;49.868;8.660;2024-03-02T14:22:18;3.08;;;2.22;;
4909;SDS011;2470;49.868;8.660;2024-03-02T14:24:44;1.75;;;1.65;;
4909;SDS011;2470;49.868;8.660;2024-03-02T14:27:10;2.35;;;2.00;;
4909;SDS011;2470;49.868;8.660;2024-03-02T14:29:35;5.70;;;2.17;;
4909;SDS011;2470;49.868;8.660;2024-03-02T14:32:03;2.30;;;1.45;;
4909;SDS011;2470;49.868;8.660;2024-03-02T14:34:29;2.08;;;1.75;;
4909;SDS011;2470;49.868;8.660;2024-03-02T14:36:54;3.45;;;2.13;;
4909;SDS011;2470;49.868;8.660;2024-03-02T14:39:20;2.60;;;2.08;;
4909;SDS011;2470;49.868;8.660;2024-03-02T14:41:46;3.75;;;1.90;;
4909;SDS011;2470;49.868;8.660;2024-03-02T14:44:11;2.30;;;2.10;;
4909;SDS011;2470;49.868;8.660;2024-03-02T14:46:37;2.80;;;2.20;;
4909;SDS011;2470;49.868;8.660;2024-03-02T14:49:03;2.42;;;2.08;;
4909;SDS011;2470;49.868;8.660;2024-03-02T14:51:29;5.22;;;2.45;;
4909;SDS011;2470;49.868;8.660;2024-03-02T14:53:55;1.80;;;1.50;;
4909;SDS011;2470;49.868;8.660;2024-03-02T14:56:20;2.75;;;1.70;;
4909;SDS011;2470;49.868;8.660;2024-03-02T14:58:46;2.22;;;1.60;;
4909;SDS011;2470;49.868;8.660;2024-03-02T15:01:11;2.65;;;1.73;;
4909;SDS011;2470;49.868;8.660;2024-03-02T15:03:38;2.47;;;1.70;;
4909;SDS011;2470;49.868;8.660;2024-03-02T15:06:03;2.38;;;2.03;;
4909;SDS011;2470;49.868;8.660;2024-03-02T15:08:30;1.65;;;1.20;;
4909;SDS011;2470;49.868;8.660;2024-03-02T15:10:55;1.52;;;1.17;;
4909;SDS011;2470;49.868;8.660;2024-03-02T15:13:22;1.40;;;1.30;;